Latest Weather Observations for Murganella Airstrip

IDD60801

Issued at 9:35 pm CST Tuesday 2 September 2014 (issued every 30 minutes, with the page automatically refreshed every 10 minutes)

About weather observations | Map of weather stations | Latest weather observations for NT | Other Formats
Station Details ID: 014309 Name: MURGANELLA AIRSTRIP Lat: -11.55 Lon: 132.93 Height: 9.5 m
Data from the previous 72 hours. | See also: Recent months for locations in Northern Territory
Date/Time
CST
Temp
°C
App
Temp
°C
Dew
Point
Rel
Hum
%
Delta-T
°C
Wind Press
QNH
hPa
Press
MSL
hPa
Rain
since 9 am
mm
Dir
 
Spd
km/h
Gust
km/h
Spd
kts
Gust
kts
02/09:30pm 20.1 - - - - ENE 0 0 0 0 1014.9 1014.8 0.0
02/09:00pm 21.3 - - - - ENE 0 2 0 1 1014.6 1014.5 0.0
02/08:30pm 22.6 - - - - ENE 2 6 1 3 1014.4 1014.3 0.0
02/08:00pm 23.6 - - - - ENE 6 9 3 5 1014.0 1013.9 0.0
02/07:30pm 24.1 - - - - ENE 6 9 3 5 1013.5 1013.4 0.0
02/07:00pm 25.1 - - - - ENE 11 17 6 9 1013.1 1013.0 0.0
02/06:30pm 25.7 - - - - NE 7 17 4 9 1012.7 1012.6 0.0
02/06:00pm 26.9 - - - - NE 7 11 4 6 1012.4 1012.3 0.0
02/05:30pm 27.7 - - - - NE 15 28 8 15 1012.2 1012.1 0.0
02/05:00pm 28.9 - - - - NE 11 22 6 12 1011.9 1011.8 0.0
02/04:30pm 29.4 - - - - ENE 19 28 10 15 1011.8 1011.7 0.0
02/04:00pm 30.4 - - - - ENE 15 28 8 15 1011.8 1011.7 0.0
02/03:30pm 30.7 - - - - ENE 19 30 10 16 1011.9 1011.8 0.0
02/03:00pm 31.0 - - - - ENE 17 26 9 14 1012.0 1011.9 0.0
02/02:30pm 31.9 - - - - ENE 13 32 7 17 1012.1 1012.0 0.0
02/02:00pm 31.9 - - - - ENE 11 20 6 11 1012.5 1012.4 0.0
02/01:30pm 31.2 - - - - ENE 19 30 10 16 1012.9 1012.8 0.0
02/01:00pm 30.6 - - - - ENE 15 33 8 18 1013.3 1013.2 0.0
02/12:30pm 30.9 - - - - ENE 15 26 8 14 1013.7 1013.6 0.0
02/12:00pm 30.6 - - - - E 15 28 8 15 1014.1 1014.0 0.0
02/11:30am 30.3 - - - - E 15 26 8 14 1014.5 1014.4 0.0
02/11:00am 29.8 - - - - E 13 20 7 11 1015.0 1014.9 0.0
02/10:30am 29.2 - - - - E 13 22 7 12 1015.3 1015.2 0.0
02/10:00am 28.3 - - - - E 9 15 5 8 1015.4 1015.3 0.0
02/09:30am 26.3 - - - - E 7 13 4 7 1015.5 1015.4 0.0
02/09:00am 23.9 - - - - ESE 2 4 1 2 1015.4 1015.3 0.0
02/08:30am 21.3 - - - - SE 4 7 2 4 1015.7 1015.6 0.0
02/08:00am 17.7 - - - - CALM 0 0 0 0 1015.2 1015.1 0.0
02/07:30am 14.4 - - - - CALM 0 0 0 0 1014.9 1014.8 0.0
02/07:00am 13.1 - - - - CALM 0 0 0 0 1014.8 1014.7 0.0
02/06:30am 12.9 - - - - CALM 0 0 0 0 1014.5 1014.4 0.0
02/06:00am 13.1 - - - - S 2 6 1 3 1014.4 1014.3 0.0
02/05:30am 13.6 - - - - CALM 0 2 0 1 1014.1 1014.0 0.0
02/05:00am 13.0 - - - - CALM 0 0 0 0 1013.9 1013.8 0.0
02/04:30am 13.3 - - - - CALM 0 0 0 0 1013.9 1013.8 0.0
02/04:00am 13.6 - - - - CALM 0 0 0 0 1013.9 1013.8 0.0
02/03:30am 14.2 - - - - CALM 0 0 0 0 1014.0 1013.9 0.0
02/03:00am 14.4 - - - - CALM 0 0 0 0 1014.1 1014.0 0.0
02/02:30am 14.7 - - - - CALM 0 0 0 0 1014.2 1014.1 0.0
02/02:00am 14.9 - - - - CALM 0 0 0 0 1014.4 1014.3 0.0
02/01:30am 14.9 - - - - CALM 0 0 0 0 1014.4 1014.3 0.0
02/01:00am 15.2 - - - - CALM 0 0 0 0 1014.6 1014.5 0.0
02/12:30am 15.8 - - - - CALM 0 0 0 0 1014.8 1014.7 0.0
02/12:00am 16.1 - - - - SSE 0 0 0 0 1014.8 1014.7 0.0
 
Date/Time
CST
Temp
°C
App
Temp
°C
Dew
Point
Rel
Hum
%
Delta-T
°C
Wind Press
QNH
hPa
Press
MSL
hPa
Rain
since 9 am
mm
Dir
 
Spd
km/h
Gust
km/h
Spd
kts
Gust
kts
01/11:30pm 16.2 - - - - CALM 0 0 0 0 1014.7 1014.6 0.0
01/11:00pm 16.4 - - - - CALM 0 0 0 0 1014.6 1014.5 0.0
01/10:30pm 16.9 - - - - CALM 0 0 0 0 1014.6 1014.5 0.0
01/10:00pm 17.0 - - - - CALM 0 0 0 0 1014.3 1014.2 0.0
01/09:30pm 17.7 - - - - CALM 0 0 0 0 1014.0 1013.9 0.0
01/09:00pm 18.1 - - - - CALM 0 0 0 0 1013.6 1013.5 0.0
01/08:30pm 19.1 - - - - CALM 0 0 0 0 1013.1 1013.0 0.0
01/08:00pm 20.3 - - - - CALM 0 0 0 0 1012.7 1012.6 0.0
01/07:30pm 21.6 - - - - CALM 0 0 0 0 1012.2 1012.1 0.0
01/07:00pm 23.8 - - - - CALM 0 4 0 2 1011.9 1011.8 0.0
01/06:30pm 25.7 - - - - N 2 4 1 2 1011.5 1011.4 0.0
01/06:00pm 26.8 - - - - ENE 7 19 4 10 1011.1 1011.0 0.0
01/05:30pm 27.6 - - - - ENE 11 22 6 12 1010.9 1010.8 0.0
01/05:00pm 29.0 - - - - ENE 11 20 6 11 1010.7 1010.6 0.0
01/04:30pm 30.1 - - - - ENE 11 20 6 11 1010.6 1010.5 0.0
01/04:00pm 30.9 - - - - ENE 13 22 7 12 1010.4 1010.3 0.0
01/03:30pm 31.1 - - - - E 9 19 5 10 1010.4 1010.3 0.0
01/03:00pm 31.5 - - - - E 11 22 6 12 1010.7 1010.6 0.0
01/02:30pm 31.9 - - - - ENE 13 22 7 12 1011.1 1011.0 0.0
01/02:00pm 31.5 - - - - E 15 24 8 13 1011.5 1011.4 0.0
01/01:30pm 32.1 - - - - E 13 20 7 11 1011.9 1011.8 0.0
01/01:00pm 31.5 - - - - ENE 17 28 9 15 1012.3 1012.2 0.0
01/12:30pm 31.3 - - - - E 15 26 8 14 1012.8 1012.7 0.0
01/12:00pm 31.0 - - - - E 15 24 8 13 1013.4 1013.3 0.0
01/11:30am 31.0 - - - - ESE 13 26 7 14 1013.8 1013.7 0.0
01/11:00am 30.1 - - - - E 11 24 6 13 1014.4 1014.3 0.0
01/10:30am 29.6 - - - - E 7 11 4 6 1014.9 1014.8 0.0
01/10:00am 26.7 - - - - SSE 4 9 2 5 1015.2 1015.1 0.0
01/09:30am 25.3 - - - - SSE 6 11 3 6 1015.4 1015.3 0.0
01/09:00am 23.4 - - - - SE 9 13 5 7 1015.5 1015.5 0.0
01/08:30am 21.5 - - - - S 2 7 1 4 1015.1 1015.1 0.0
01/08:00am 20.2 - - - - SSW 2 7 1 4 1015.0 1015.0 0.0
01/07:30am 18.3 - - - - CALM 0 0 0 0 1014.7 1014.7 0.0
01/07:00am 17.2 - - - - CALM 0 0 0 0 1014.4 1014.4 0.0
01/06:30am 18.0 - - - - CALM 0 0 0 0 1013.9 1013.9 0.0
01/06:00am 19.0 - - - - WSW 2 4 1 2 1013.8 1013.8 0.0
01/05:30am 20.1 - - - - CALM 0 0 0 0 1013.5 1013.5 0.0
01/05:00am 22.0 - - - - ENE 4 7 2 4 1013.3 1013.3 0.0
01/04:30am 22.5 - - - - E 7 13 4 7 1013.1 1013.1 0.0
01/04:00am 22.8 - - - - E 7 15 4 8 1012.9 1012.9 0.0
01/03:30am 22.8 - - - - ENE 9 17 5 9 1012.9 1012.9 0.0
01/03:00am 21.7 - - - - ENE 7 13 4 7 1013.1 1013.1 0.0
01/02:57am 21.6 - - - - ENE 7 13 4 7 1013.1 1013.1 0.0
01/02:30am 16.5 - - - - SSE 2 7 1 4 1013.3 1013.3 0.0
01/02:00am 16.6 - - - - WSW 2 4 1 2 1013.5 1013.5 0.0
01/01:30am 15.8 - - - - CALM 0 0 0 0 1013.5 1013.5 0.0
01/01:00am 16.2 - - - - CALM 0 0 0 0 1013.5 1013.5 0.0
01/12:30am 16.5 - - - - CALM 0 0 0 0 1013.5 1013.5 0.0
01/12:00am 16.6 - - - - CALM 0 0 0 0 1013.5 1013.5 0.0
 
Date/Time
CST
Temp
°C
App
Temp
°C
Dew
Point
Rel
Hum
%
Delta-T
°C
Wind Press
QNH
hPa
Press
MSL
hPa
Rain
since 9 am
mm
Dir
 
Spd
km/h
Gust
km/h
Spd
kts
Gust
kts
31/11:30pm 17.1 - - - - CALM 0 0 0 0 1013.5 1013.5 0.0
31/11:00pm 16.8 - - - - CALM 0 0 0 0 1013.3 1013.3 0.0
31/10:30pm 17.1 - - - - CALM 0 0 0 0 1013.2 1013.2 0.0
31/10:00pm 17.8 - - - - CALM 0 0 0 0 1013.1 1013.1 0.0
31/09:30pm 18.2 - - - - CALM 0 0 0 0 1012.9 1012.9 0.0
31/09:00pm 18.9 - - - - CALM 0 0 0 0 1012.5 1012.5 0.0
31/08:30pm 19.5 - - - - CALM 0 0 0 0 1012.2 1012.2 0.0
31/08:00pm 20.6 - - - - CALM 0 0 0 0 1012.0 1012.0 0.0
31/07:30pm 22.2 - - - - WSW 2 6 1 3 1011.6 1011.5 0.0
31/07:00pm 23.6 - - - - CALM 0 2 0 1 1011.0 1010.9 0.0
31/06:30pm 24.8 - - - - ENE 7 13 4 7 1010.7 1010.6 0.0
31/06:00pm 26.1 - - - - ENE 9 19 5 10 1010.3 1010.2 0.0
31/05:30pm 26.9 - - - - ENE 13 24 7 13 1010.2 1010.1 0.0
31/05:00pm 27.5 - - - - NE 15 26 8 14 1010.2 1010.1 0.0
31/04:30pm 28.2 - - - - NE 15 26 8 14 1010.3 1010.2 0.0
31/04:00pm 29.4 - - - - NE 13 20 7 11 1010.0 1009.9 0.0
31/03:30pm 30.1 - - - - ENE 13 22 7 12 1010.0 1009.9 0.0
31/03:00pm 30.8 - - - - ENE 13 24 7 13 1010.1 1010.0 0.0
31/02:30pm 30.6 - - - - NE 15 28 8 15 1010.3 1010.2 0.0
31/02:00pm 31.4 - - - - ENE 13 24 7 13 1010.6 1010.5 0.0
31/01:30pm 30.9 - - - - ENE 15 28 8 15 1011.0 1010.9 0.0
31/01:00pm 31.1 - - - - E 19 30 10 16 1011.5 1011.4 0.0
31/12:30pm 31.6 - - - - E 17 28 9 15 1012.1 1012.1 0.0
31/12:00pm 30.6 - - - - ESE 19 32 10 17 1012.7 1012.7 0.0
31/11:30am 30.8 - - - - ESE 19 30 10 16 1013.1 1013.1 0.0
31/11:00am 30.4 - - - - SE 17 28 9 15 1013.6 1013.6 0.0
31/10:30am 29.4 - - - - E 13 24 7 13 1014.0 1014.0 0.0
31/10:00am 27.1 - - - - ESE 7 11 4 6 1014.5 1014.5 0.0
31/09:30am 24.4 - - - - SE 4 7 2 4 1014.8 1014.8 0.0
31/09:00am 22.5 - - - - SE 4 7 2 4 1014.9 1014.9 0.0
31/08:30am 20.4 - - - - SE 4 7 2 4 1014.6 1014.6 0.0
31/08:00am 17.9 - - - - SSE 2 4 1 2 1014.4 1014.4 0.0
31/07:30am 14.7 - - - - SSW 2 4 1 2 1014.0 1014.0 0.0
31/07:00am 13.9 - - - - CALM 0 0 0 0 1013.7 1013.7 0.0
31/06:30am 14.6 - - - - CALM 0 0 0 0 1013.4 1013.4 0.0
31/06:00am 15.4 - - - - CALM 0 0 0 0 1013.0 1013.0 0.0
31/05:30am 15.4 - - - - CALM 0 0 0 0 1012.9 1012.9 0.0
31/05:00am 15.2 - - - - CALM 0 0 0 0 1012.8 1012.8 0.0
31/04:30am 15.2 - - - - CALM 0 0 0 0 1012.9 1012.9 0.0
31/04:00am 15.4 - - - - CALM 0 0 0 0 1013.0 1013.0 0.0
31/03:30am 15.4 - - - - CALM 0 0 0 0 1013.0 1013.0 0.0
31/03:00am 15.4 - - - - CALM 0 0 0 0 1013.1 1013.1 0.0
31/02:30am 16.1 - - - - CALM 0 0 0 0 1013.2 1013.2 0.0
31/02:00am 15.9 - - - - CALM 0 0 0 0 1013.3 1013.3 0.0
31/01:30am 16.4 - - - - CALM 0 0 0 0 1013.5 1013.5 0.0
31/01:00am 16.3 - - - - CALM 0 0 0 0 1013.5 1013.5 0.0
31/12:30am 16.4 - - - - CALM 0 0 0 0 1013.6 1013.6 0.0
31/12:00am 16.9 - - - - CALM 0 0 0 0 1013.8 1013.8 0.0
 
Date/Time
CST
Temp
°C
App
Temp
°C
Dew
Point
Rel
Hum
%
Delta-T
°C
Wind Press
QNH
hPa
Press
MSL
hPa
Rain
since 9 am
mm
Dir
 
Spd
km/h
Gust
km/h
Spd
kts
Gust
kts
30/11:30pm 17.1 - - - - CALM 0 0 0 0 1013.7 1013.7 0.0
30/11:00pm 17.4 - - - - CALM 0 0 0 0 1013.5 1013.5 0.0
30/10:30pm 18.0 - - - - CALM 0 0 0 0 1013.3 1013.3 0.0
30/10:00pm 18.5 - - - - CALM 0 0 0 0 1013.3 1013.3 0.0

Other Formats:

Comma delimited format used in spreadsheet applications
http://www.bom.gov.au/fwo/IDD60801/IDD60801.94109.axf

JavaScript Object Notation format (JSON) in row-major order
http://www.bom.gov.au/fwo/IDD60801/IDD60801.94109.json